Aérodrome :
LOGIN :

S'inscrire | Disclaimer

   EN    FR    IT 

 










Légende :    VFR   VFR Marginal   IFR   IFR Intensif   IFR Très Intensif
Visi : 
Plafond : 
>= 8 km
>= 3000ft
5 à 8 km
1000 à 3000 ft
1500m à 5 km
500 à 1000 ft
800 à 1500m
200 à 500 ft
< 800m
< 200 ft
Symboles :   Orages  Brouillard  Fortes neiges  Fortes précipitations  Vent > 20 kt
SIGMETs :   Divers  Orages  Givrage  Turbulence  Onde Orograph.  Cendres Volcan.






- Altitude de l'aérodrome : 24 ft
- Code IATA : SGD


EKSB - Sonderborg

DERNIER METAR :
  • 191303Z 24009KT 210V320 7000 -SHRA BKN012 09/07 Q1008

METARs EXPIRÉS :
  • 191250Z 23006KT 180V260 9999 BKN014 BKN026 08/07 Q1008 RERA
  • 191220Z 24010KT 200V280 7000 -SHRA BKN011 BKN019 09/07 Q1008
  • 191155Z 24009KT 200V260 9999 -SHRA BKN015 BKN022 09/07 Q1007
  • 191120Z 24008KT 200V260 9999 BKN015 09/07 Q1006

TAF TAF EKSB
Valide du 19 à 12h jusqu'au 19 à 21h UTC


191155Z 1912/1921 24010KT 9999 BKN010
BECMG 1912/1914 BKN020



MET'MAP, la Météo Aéronautique d'un coup d'oeil ! - Copyright ORBIFLY Décembre 2007 - Disclaimer

ORBIFLY MET'MAP TEAM :

Programmation & Développement : Alexandra Zaïnal
Conception & Développement : Baudouin d'Aumeries
Co-Programmation & Développement : Marc-Olivier Méhu
Soutien technique & logistique : Manuel Goepfert

Contact : metmap@orbifly.com




SOURCES & CREDITS :

   NOAA